sensor_id;sensor_type;location;lat;lon;timestamp;P1;durP1;ratioP1;P2;durP2;ratioP2
16416;SDS011;8317;52.186;5.688;2023-01-30T00:00:49;65.67;;;32.17;;
16416;SDS011;8317;52.186;5.688;2023-01-30T00:03:16;60.20;;;31.40;;
16416;SDS011;8317;52.186;5.688;2023-01-30T00:05:43;59.60;;;30.93;;
16416;SDS011;8317;52.186;5.688;2023-01-30T00:08:11;63.10;;;32.00;;
16416;SDS011;8317;52.186;5.688;2023-01-30T00:10:38;55.90;;;32.20;;
16416;SDS011;8317;52.186;5.688;2023-01-30T00:13:05;58.43;;;31.67;;
16416;SDS011;8317;52.186;5.688;2023-01-30T00:15:33;62.00;;;31.30;;
16416;SDS011;8317;52.186;5.688;2023-01-30T00:18:01;57.07;;;30.07;;
16416;SDS011;8317;52.186;5.688;2023-01-30T00:20:28;60.87;;;31.23;;
16416;SDS011;8317;52.186;5.688;2023-01-30T00:22:55;57.83;;;30.47;;
16416;SDS011;8317;52.186;5.688;2023-01-30T00:25:22;55.97;;;31.30;;
16416;SDS011;8317;52.186;5.688;2023-01-30T00:27:49;58.27;;;29.13;;
16416;SDS011;8317;52.186;5.688;2023-01-30T00:30:16;50.78;;;30.17;;
16416;SDS011;8317;52.186;5.688;2023-01-30T00:32:44;56.58;;;26.35;;
16416;SDS011;8317;52.186;5.688;2023-01-30T00:35:11;54.85;;;30.02;;
16416;SDS011;8317;52.186;5.688;2023-01-30T00:37:38;61.77;;;31.37;;
16416;SDS011;8317;52.186;5.688;2023-01-30T00:40:06;53.97;;;29.97;;
16416;SDS011;8317;52.186;5.688;2023-01-30T00:42:33;49.08;;;29.23;;
16416;SDS011;8317;52.186;5.688;2023-01-30T00:45:18;54.90;;;30.20;;
16416;SDS011;8317;52.186;5.688;2023-01-30T00:48:03;48.30;;;26.80;;
16416;SDS011;8317;52.186;5.688;2023-01-30T00:50:31;50.40;;;29.27;;
16416;SDS011;8317;52.186;5.688;2023-01-30T00:53:07;46.85;;;27.08;;
16416;SDS011;8317;52.186;5.688;2023-01-30T00:55:34;43.20;;;26.15;;
16416;SDS011;8317;52.186;5.688;2023-01-30T00:58:01;55.88;;;28.05;;
16416;SDS011;8317;52.186;5.688;2023-01-30T01:00:29;44.28;;;26.38;;
16416;SDS011;8317;52.186;5.688;2023-01-30T01:02:56;39.45;;;25.02;;
16416;SDS011;8317;52.186;5.688;2023-01-30T01:05:24;50.83;;;27.40;;
16416;SDS011;8317;52.186;5.688;2023-01-30T01:07:51;48.77;;;27.87;;
16416;SDS011;8317;52.186;5.688;2023-01-30T01:10:18;43.20;;;25.77;;
16416;SDS011;8317;52.186;5.688;2023-01-30T01:12:45;44.22;;;24.08;;
16416;SDS011;8317;52.186;5.688;2023-01-30T01:15:13;44.55;;;24.50;;
16416;SDS011;8317;52.186;5.688;2023-01-30T01:17:40;40.60;;;21.77;;
16416;SDS011;8317;52.186;5.688;2023-01-30T01:20:08;45.10;;;23.00;;
16416;SDS011;8317;52.186;5.688;2023-01-30T01:22:37;35.15;;;22.60;;
16416;SDS011;8317;52.186;5.688;2023-01-30T01:25:04;43.70;;;22.60;;
16416;SDS011;8317;52.186;5.688;2023-01-30T01:27:32;40.80;;;22.08;;
16416;SDS011;8317;52.186;5.688;2023-01-30T01:29:59;40.45;;;21.02;;
16416;SDS011;8317;52.186;5.688;2023-01-30T01:32:26;35.30;;;20.90;;
16416;SDS011;8317;52.186;5.688;2023-01-30T01:34:53;29.65;;;19.73;;
16416;SDS011;8317;52.186;5.688;2023-01-30T01:37:19;36.43;;;21.63;;
16416;SDS011;8317;52.186;5.688;2023-01-30T01:39:48;31.67;;;17.52;;
16416;SDS011;8317;52.186;5.688;2023-01-30T01:42:33;33.15;;;18.42;;
16416;SDS011;8317;52.186;5.688;2023-01-30T01:45:03;39.75;;;17.98;;
16416;SDS011;8317;52.186;5.688;2023-01-30T01:47:42;31.67;;;19.08;;
16416;SDS011;8317;52.186;5.688;2023-01-30T01:50:13;32.45;;;19.33;;
16416;SDS011;8317;52.186;5.688;2023-01-30T01:52:43;39.33;;;19.00;;
16416;SDS011;8317;52.186;5.688;2023-01-30T01:55:15;34.80;;;18.48;;
16416;SDS011;8317;52.186;5.688;2023-01-30T01:57:45;32.20;;;18.30;;
16416;SDS011;8317;52.186;5.688;2023-01-30T02:00:16;32.83;;;16.88;;
16416;SDS011;8317;52.186;5.688;2023-01-30T02:02:46;34.42;;;17.83;;
16416;SDS011;8317;52.186;5.688;2023-01-30T02:05:17;29.70;;;17.88;;
16416;SDS011;8317;52.186;5.688;2023-01-30T02:07:46;30.20;;;16.77;;
16416;SDS011;8317;52.186;5.688;2023-01-30T02:10:20;32.10;;;17.65;;
16416;SDS011;8317;52.186;5.688;2023-01-30T02:12:50;31.95;;;18.65;;
16416;SDS011;8317;52.186;5.688;2023-01-30T02:15:18;34.10;;;17.77;;
16416;SDS011;8317;52.186;5.688;2023-01-30T02:17:45;30.80;;;17.00;;
16416;SDS011;8317;52.186;5.688;2023-01-30T02:20:15;30.73;;;17.02;;
16416;SDS011;8317;52.186;5.688;2023-01-30T02:22:58;29.55;;;15.52;;
16416;SDS011;8317;52.186;5.688;2023-01-30T02:25:55;33.53;;;17.63;;
16416;SDS011;8317;52.186;5.688;2023-01-30T02:28:47;38.03;;;17.38;;
16416;SDS011;8317;52.186;5.688;2023-01-30T02:31:57;24.88;;;15.13;;
16416;SDS011;8317;52.186;5.688;2023-01-30T02:34:33;30.27;;;15.60;;
16416;SDS011;8317;52.186;5.688;2023-01-30T02:37:11;28.17;;;16.27;;
16416;SDS011;8317;52.186;5.688;2023-01-30T02:39:47;32.78;;;16.48;;
16416;SDS011;8317;52.186;5.688;2023-01-30T02:42:28;27.98;;;15.55;;
16416;SDS011;8317;52.186;5.688;2023-01-30T02:45:03;25.17;;;14.93;;
16416;SDS011;8317;52.186;5.688;2023-01-30T02:47:37;32.72;;;14.98;;
16416;SDS011;8317;52.186;5.688;2023-01-30T02:50:07;26.80;;;16.08;;
16416;SDS011;8317;52.186;5.688;2023-01-30T02:52:41;25.35;;;13.30;;
16416;SDS011;8317;52.186;5.688;2023-01-30T02:55:08;21.23;;;11.65;;
16416;SDS011;8317;52.186;5.688;2023-01-30T02:57:42;23.85;;;12.77;;
16416;SDS011;8317;52.186;5.688;2023-01-30T03:00:10;24.25;;;12.27;;
16416;SDS011;8317;52.186;5.688;2023-01-30T03:02:44;21.17;;;11.60;;
16416;SDS011;8317;52.186;5.688;2023-01-30T03:05:37;22.95;;;12.38;;
16416;SDS011;8317;52.186;5.688;2023-01-30T03:08:14;26.00;;;12.43;;
16416;SDS011;8317;52.186;5.688;2023-01-30T03:10:51;25.08;;;11.38;;
16416;SDS011;8317;52.186;5.688;2023-01-30T03:13:25;24.50;;;11.13;;
16416;SDS011;8317;52.186;5.688;2023-01-30T03:16:04;21.70;;;11.40;;
16416;SDS011;8317;52.186;5.688;2023-01-30T03:18:36;23.48;;;11.35;;
16416;SDS011;8317;52.186;5.688;2023-01-30T03:21:06;19.00;;;10.77;;
16416;SDS011;8317;52.186;5.688;2023-01-30T03:23:33;22.73;;;10.30;;
16416;SDS011;8317;52.186;5.688;2023-01-30T03:26:01;17.90;;;10.23;;
16416;SDS011;8317;52.186;5.688;2023-01-30T03:28:29;25.75;;;10.98;;
16416;SDS011;8317;52.186;5.688;2023-01-30T03:30:57;22.42;;;10.48;;
16416;SDS011;8317;52.186;5.688;2023-01-30T03:33:24;20.40;;;11.07;;
16416;SDS011;8317;52.186;5.688;2023-01-30T03:35:52;20.23;;;10.00;;
16416;SDS011;8317;52.186;5.688;2023-01-30T03:38:19;19.50;;;9.27;;
16416;SDS011;8317;52.186;5.688;2023-01-30T03:40:46;22.60;;;9.73;;
16416;SDS011;8317;52.186;5.688;2023-01-30T03:43:13;18.30;;;8.98;;
16416;SDS011;8317;52.186;5.688;2023-01-30T03:45:39;24.70;;;9.10;;
16416;SDS011;8317;52.186;5.688;2023-01-30T03:48:06;27.88;;;10.07;;
16416;SDS011;8317;52.186;5.688;2023-01-30T03:50:33;28.30;;;9.07;;
16416;SDS011;8317;52.186;5.688;2023-01-30T03:53:02;22.52;;;8.15;;
16416;SDS011;8317;52.186;5.688;2023-01-30T03:55:28;14.93;;;7.65;;
16416;SDS011;8317;52.186;5.688;2023-01-30T03:57:55;23.42;;;8.30;;
16416;SDS011;8317;52.186;5.688;2023-01-30T04:00:23;23.42;;;7.93;;
16416;SDS011;8317;52.186;5.688;2023-01-30T04:02:50;15.27;;;6.22;;
16416;SDS011;8317;52.186;5.688;2023-01-30T04:05:18;21.20;;;7.10;;
16416;SDS011;8317;52.186;5.688;2023-01-30T04:07:46;18.13;;;7.25;;
16416;SDS011;8317;52.186;5.688;2023-01-30T04:10:14;26.77;;;7.80;;
16416;SDS011;8317;52.186;5.688;2023-01-30T04:12:43;16.42;;;6.53;;
16416;SDS011;8317;52.186;5.688;2023-01-30T04:15:11;30.75;;;7.20;;
16416;SDS011;8317;52.186;5.688;2023-01-30T04:17:38;18.13;;;6.75;;
16416;SDS011;8317;52.186;5.688;2023-01-30T04:20:05;21.88;;;6.53;;
16416;SDS011;8317;52.186;5.688;2023-01-30T04:22:33;19.02;;;6.40;;
16416;SDS011;8317;52.186;5.688;2023-01-30T04:25:00;20.67;;;6.30;;
16416;SDS011;8317;52.186;5.688;2023-01-30T04:27:28;19.73;;;6.38;;
16416;SDS011;8317;52.186;5.688;2023-01-30T04:29:55;21.80;;;6.57;;
16416;SDS011;8317;52.186;5.688;2023-01-30T04:32:22;15.90;;;6.45;;
16416;SDS011;8317;52.186;5.688;2023-01-30T04:34:50;25.05;;;6.38;;
16416;SDS011;8317;52.186;5.688;2023-01-30T04:37:17;18.27;;;6.45;;
16416;SDS011;8317;52.186;5.688;2023-01-30T04:39:44;24.10;;;6.60;;
16416;SDS011;8317;52.186;5.688;2023-01-30T04:42:11;24.27;;;5.82;;
16416;SDS011;8317;52.186;5.688;2023-01-30T04:44:39;17.85;;;6.18;;
16416;SDS011;8317;52.186;5.688;2023-01-30T04:47:06;18.55;;;6.28;;
16416;SDS011;8317;52.186;5.688;2023-01-30T04:49:33;23.65;;;6.55;;
16416;SDS011;8317;52.186;5.688;2023-01-30T04:52:00;15.20;;;5.35;;
16416;SDS011;8317;52.186;5.688;2023-01-30T04:54:26;20.48;;;5.53;;
16416;SDS011;8317;52.186;5.688;2023-01-30T04:56:53;21.40;;;6.22;;
16416;SDS011;8317;52.186;5.688;2023-01-30T04:59:21;19.38;;;5.53;;
16416;SDS011;8317;52.186;5.688;2023-01-30T05:01:49;14.98;;;4.75;;
16416;SDS011;8317;52.186;5.688;2023-01-30T05:04:16;16.75;;;5.43;;
16416;SDS011;8317;52.186;5.688;2023-01-30T05:06:43;18.83;;;5.40;;
16416;SDS011;8317;52.186;5.688;2023-01-30T05:09:10;25.40;;;5.55;;
16416;SDS011;8317;52.186;5.688;2023-01-30T05:11:37;25.73;;;5.75;;
16416;SDS011;8317;52.186;5.688;2023-01-30T05:14:04;17.67;;;4.63;;
16416;SDS011;8317;52.186;5.688;2023-01-30T05:16:31;14.77;;;4.32;;
16416;SDS011;8317;52.186;5.688;2023-01-30T05:18:59;11.15;;;5.50;;
16416;SDS011;8317;52.186;5.688;2023-01-30T05:21:26;14.15;;;4.88;;
16416;SDS011;8317;52.186;5.688;2023-01-30T05:23:53;13.90;;;4.55;;
16416;SDS011;8317;52.186;5.688;2023-01-30T05:26:21;12.60;;;4.80;;
16416;SDS011;8317;52.186;5.688;2023-01-30T05:28:49;19.10;;;4.75;;
16416;SDS011;8317;52.186;5.688;2023-01-30T05:31:17;19.02;;;4.75;;
16416;SDS011;8317;52.186;5.688;2023-01-30T05:33:45;19.30;;;4.30;;
16416;SDS011;8317;52.186;5.688;2023-01-30T05:36:15;14.98;;;4.07;;
16416;SDS011;8317;52.186;5.688;2023-01-30T05:38:43;11.45;;;4.03;;
16416;SDS011;8317;52.186;5.688;2023-01-30T05:41:11;13.25;;;3.78;;
16416;SDS011;8317;52.186;5.688;2023-01-30T05:43:40;22.10;;;4.28;;
16416;SDS011;8317;52.186;5.688;2023-01-30T05:46:09;17.40;;;4.07;;
16416;SDS011;8317;52.186;5.688;2023-01-30T05:48:37;15.25;;;3.67;;
16416;SDS011;8317;52.186;5.688;2023-01-30T05:51:04;13.70;;;3.30;;
16416;SDS011;8317;52.186;5.688;2023-01-30T05:53:33;20.30;;;3.80;;
16416;SDS011;8317;52.186;5.688;2023-01-30T05:56:00;17.95;;;4.28;;
16416;SDS011;8317;52.186;5.688;2023-01-30T05:58:29;12.60;;;3.83;;
16416;SDS011;8317;52.186;5.688;2023-01-30T06:01:00;18.50;;;3.60;;
16416;SDS011;8317;52.186;5.688;2023-01-30T06:03:28;22.20;;;4.13;;
16416;SDS011;8317;52.186;5.688;2023-01-30T06:05:54;13.57;;;3.40;;
16416;SDS011;8317;52.186;5.688;2023-01-30T06:08:21;15.88;;;3.53;;
16416;SDS011;8317;52.186;5.688;2023-01-30T06:10:50;26.25;;;4.03;;
16416;SDS011;8317;52.186;5.688;2023-01-30T06:13:17;16.30;;;3.55;;
16416;SDS011;8317;52.186;5.688;2023-01-30T06:15:44;15.57;;;4.13;;
16416;SDS011;8317;52.186;5.688;2023-01-30T06:18:11;15.57;;;3.83;;
16416;SDS011;8317;52.186;5.688;2023-01-30T06:20:38;16.77;;;3.95;;
16416;SDS011;8317;52.186;5.688;2023-01-30T06:23:05;14.32;;;3.70;;
16416;SDS011;8317;52.186;5.688;2023-01-30T06:25:31;17.77;;;4.25;;
16416;SDS011;8317;52.186;5.688;2023-01-30T06:28:00;12.85;;;3.53;;
16416;SDS011;8317;52.186;5.688;2023-01-30T06:30:26;23.95;;;3.70;;
16416;SDS011;8317;52.186;5.688;2023-01-30T06:32:53;14.03;;;3.93;;
16416;SDS011;8317;52.186;5.688;2023-01-30T06:35:20;18.83;;;3.88;;
16416;SDS011;8317;52.186;5.688;2023-01-30T06:37:47;14.38;;;3.42;;
16416;SDS011;8317;52.186;5.688;2023-01-30T06:40:14;14.55;;;4.28;;
16416;SDS011;8317;52.186;5.688;2023-01-30T06:42:44;16.70;;;3.25;;
16416;SDS011;8317;52.186;5.688;2023-01-30T06:45:13;13.73;;;3.10;;
16416;SDS011;8317;52.186;5.688;2023-01-30T06:47:44;17.95;;;3.72;;
16416;SDS011;8317;52.186;5.688;2023-01-30T06:50:12;17.63;;;3.20;;
16416;SDS011;8317;52.186;5.688;2023-01-30T06:52:40;20.00;;;3.57;;
16416;SDS011;8317;52.186;5.688;2023-01-30T06:55:07;17.93;;;4.33;;
16416;SDS011;8317;52.186;5.688;2023-01-30T06:57:35;23.63;;;3.27;;
16416;SDS011;8317;52.186;5.688;2023-01-30T07:00:02;20.27;;;3.70;;
16416;SDS011;8317;52.186;5.688;2023-01-30T07:02:32;15.90;;;3.90;;
16416;SDS011;8317;52.186;5.688;2023-01-30T07:04:59;14.70;;;3.20;;
16416;SDS011;8317;52.186;5.688;2023-01-30T07:07:27;15.90;;;3.50;;
16416;SDS011;8317;52.186;5.688;2023-01-30T07:09:54;17.23;;;3.90;;
16416;SDS011;8317;52.186;5.688;2023-01-30T07:12:21;12.75;;;3.15;;
16416;SDS011;8317;52.186;5.688;2023-01-30T07:14:48;19.87;;;4.37;;
16416;SDS011;8317;52.186;5.688;2023-01-30T07:17:15;17.37;;;3.43;;
16416;SDS011;8317;52.186;5.688;2023-01-30T07:19:44;22.17;;;4.10;;
16416;SDS011;8317;52.186;5.688;2023-01-30T07:22:11;20.53;;;4.00;;
16416;SDS011;8317;52.186;5.688;2023-01-30T07:24:38;27.93;;;4.67;;
16416;SDS011;8317;52.186;5.688;2023-01-30T07:27:07;19.67;;;3.93;;
16416;SDS011;8317;52.186;5.688;2023-01-30T07:29:35;28.92;;;5.07;;
16416;SDS011;8317;52.186;5.688;2023-01-30T07:32:03;23.53;;;5.60;;
16416;SDS011;8317;52.186;5.688;2023-01-30T07:34:30;22.40;;;5.50;;
16416;SDS011;8317;52.186;5.688;2023-01-30T07:36:59;16.63;;;4.80;;
16416;SDS011;8317;52.186;5.688;2023-01-30T07:39:26;29.13;;;5.10;;
16416;SDS011;8317;52.186;5.688;2023-01-30T07:41:52;26.63;;;4.43;;
16416;SDS011;8317;52.186;5.688;2023-01-30T07:44:19;27.57;;;5.30;;
16416;SDS011;8317;52.186;5.688;2023-01-30T07:46:46;22.10;;;3.93;;
16416;SDS011;8317;52.186;5.688;2023-01-30T07:49:13;26.87;;;4.67;;
16416;SDS011;8317;52.186;5.688;2023-01-30T07:51:40;15.50;;;4.30;;
16416;SDS011;8317;52.186;5.688;2023-01-30T07:54:08;24.93;;;4.73;;
16416;SDS011;8317;52.186;5.688;2023-01-30T07:56:35;25.13;;;4.97;;
16416;SDS011;8317;52.186;5.688;2023-01-30T07:59:02;23.13;;;4.43;;
16416;SDS011;8317;52.186;5.688;2023-01-30T08:01:31;22.88;;;4.63;;
16416;SDS011;8317;52.186;5.688;2023-01-30T08:03:58;18.67;;;3.43;;
16416;SDS011;8317;52.186;5.688;2023-01-30T08:06:25;18.67;;;3.73;;
16416;SDS011;8317;52.186;5.688;2023-01-30T08:08:51;23.47;;;4.60;;
16416;SDS011;8317;52.186;5.688;2023-01-30T08:11:20;23.10;;;3.70;;
16416;SDS011;8317;52.186;5.688;2023-01-30T08:13:47;15.68;;;3.30;;
16416;SDS011;8317;52.186;5.688;2023-01-30T08:16:13;23.40;;;3.83;;
16416;SDS011;8317;52.186;5.688;2023-01-30T08:18:40;22.02;;;3.50;;
16416;SDS011;8317;52.186;5.688;2023-01-30T08:21:08;22.43;;;4.60;;
16416;SDS011;8317;52.186;5.688;2023-01-30T08:23:36;22.13;;;4.43;;
16416;SDS011;8317;52.186;5.688;2023-01-30T08:26:03;28.45;;;4.80;;
16416;SDS011;8317;52.186;5.688;2023-01-30T08:28:32;23.48;;;4.53;;
16416;SDS011;8317;52.186;5.688;2023-01-30T08:30:59;25.58;;;4.65;;
16416;SDS011;8317;52.186;5.688;2023-01-30T08:33:26;21.73;;;3.67;;
16416;SDS011;8317;52.186;5.688;2023-01-30T08:35:54;24.07;;;4.07;;
16416;SDS011;8317;52.186;5.688;2023-01-30T08:38:21;25.83;;;4.13;;
16416;SDS011;8317;52.186;5.688;2023-01-30T08:40:48;22.23;;;4.05;;
16416;SDS011;8317;52.186;5.688;2023-01-30T08:43:15;18.17;;;3.45;;
16416;SDS011;8317;52.186;5.688;2023-01-30T08:45:43;22.13;;;3.67;;
16416;SDS011;8317;52.186;5.688;2023-01-30T08:48:10;24.60;;;5.45;;
16416;SDS011;8317;52.186;5.688;2023-01-30T08:50:37;14.95;;;3.72;;
16416;SDS011;8317;52.186;5.688;2023-01-30T08:53:04;25.92;;;5.75;;
16416;SDS011;8317;52.186;5.688;2023-01-30T08:55:33;31.50;;;5.43;;
16416;SDS011;8317;52.186;5.688;2023-01-30T08:58:00;22.30;;;5.35;;
16416;SDS011;8317;52.186;5.688;2023-01-30T09:00:27;19.30;;;3.50;;
16416;SDS011;8317;52.186;5.688;2023-01-30T09:02:56;19.02;;;4.78;;
16416;SDS011;8317;52.186;5.688;2023-01-30T09:05:24;23.55;;;5.03;;
16416;SDS011;8317;52.186;5.688;2023-01-30T09:07:51;30.30;;;5.07;;
16416;SDS011;8317;52.186;5.688;2023-01-30T09:10:18;21.63;;;4.22;;
16416;SDS011;8317;52.186;5.688;2023-01-30T09:12:46;23.55;;;3.75;;
16416;SDS011;8317;52.186;5.688;2023-01-30T09:15:13;24.60;;;3.97;;
16416;SDS011;8317;52.186;5.688;2023-01-30T09:17:40;20.35;;;5.78;;
16416;SDS011;8317;52.186;5.688;2023-01-30T09:20:10;23.73;;;6.50;;
16416;SDS011;8317;52.186;5.688;2023-01-30T09:22:38;27.95;;;8.32;;
16416;SDS011;8317;52.186;5.688;2023-01-30T09:25:05;42.72;;;11.52;;
16416;SDS011;8317;52.186;5.688;2023-01-30T09:27:33;47.67;;;12.43;;
16416;SDS011;8317;52.186;5.688;2023-01-30T09:30:01;17.58;;;3.88;;
16416;SDS011;8317;52.186;5.688;2023-01-30T09:32:28;26.55;;;8.00;;
16416;SDS011;8317;52.186;5.688;2023-01-30T09:34:55;23.60;;;5.05;;
16416;SDS011;8317;52.186;5.688;2023-01-30T09:37:23;22.15;;;5.03;;
16416;SDS011;8317;52.186;5.688;2023-01-30T09:39:50;20.55;;;5.22;;
16416;SDS011;8317;52.186;5.688;2023-01-30T09:42:28;25.60;;;5.60;;
16416;SDS011;8317;52.186;5.688;2023-01-30T09:45:19;29.95;;;4.55;;
16416;SDS011;8317;52.186;5.688;2023-01-30T09:48:11;19.55;;;3.85;;
16416;SDS011;8317;52.186;5.688;2023-01-30T09:50:46;18.42;;;4.35;;
16416;SDS011;8317;52.186;5.688;2023-01-30T09:53:39;22.67;;;4.00;;
16416;SDS011;8317;52.186;5.688;2023-01-30T09:56:18;22.65;;;4.15;;
16416;SDS011;8317;52.186;5.688;2023-01-30T09:58:46;27.58;;;4.43;;
16416;SDS011;8317;52.186;5.688;2023-01-30T10:01:25;18.92;;;3.40;;
16416;SDS011;8317;52.186;5.688;2023-01-30T10:04:01;22.10;;;3.58;;
16416;SDS011;8317;52.186;5.688;2023-01-30T10:06:39;19.05;;;3.70;;
16416;SDS011;8317;52.186;5.688;2023-01-30T10:09:14;27.42;;;4.60;;
16416;SDS011;8317;52.186;5.688;2023-01-30T10:11:56;19.25;;;4.25;;
16416;SDS011;8317;52.186;5.688;2023-01-30T10:14:46;16.05;;;3.42;;
16416;SDS011;8317;52.186;5.688;2023-01-30T10:17:28;20.83;;;4.00;;
16416;SDS011;8317;52.186;5.688;2023-01-30T10:20:13;21.42;;;3.13;;
16416;SDS011;8317;52.186;5.688;2023-01-30T10:22:53;26.50;;;4.10;;
16416;SDS011;8317;52.186;5.688;2023-01-30T10:25:31;16.42;;;3.53;;
16416;SDS011;8317;52.186;5.688;2023-01-30T10:28:05;18.45;;;4.00;;
16416;SDS011;8317;52.186;5.688;2023-01-30T10:30:37;29.77;;;4.28;;
16416;SDS011;8317;52.186;5.688;2023-01-30T10:33:06;24.38;;;4.63;;
16416;SDS011;8317;52.186;5.688;2023-01-30T10:35:41;26.52;;;3.65;;
16416;SDS011;8317;52.186;5.688;2023-01-30T10:38:11;21.65;;;3.38;;
16416;SDS011;8317;52.186;5.688;2023-01-30T10:40:45;25.55;;;4.45;;
16416;SDS011;8317;52.186;5.688;2023-01-30T10:43:21;17.55;;;3.67;;
16416;SDS011;8317;52.186;5.688;2023-01-30T10:45:53;17.15;;;4.68;;
16416;SDS011;8317;52.186;5.688;2023-01-30T10:48:32;16.95;;;4.25;;
16416;SDS011;8317;52.186;5.688;2023-01-30T10:51:12;15.70;;;3.45;;
16416;SDS011;8317;52.186;5.688;2023-01-30T10:53:47;18.17;;;3.70;;
16416;SDS011;8317;52.186;5.688;2023-01-30T10:56:23;19.85;;;3.80;;
16416;SDS011;8317;52.186;5.688;2023-01-30T10:58:59;20.52;;;3.42;;
16416;SDS011;8317;52.186;5.688;2023-01-30T11:01:36;25.00;;;8.10;;
16416;SDS011;8317;52.186;5.688;2023-01-30T11:04:12;28.58;;;8.85;;
16416;SDS011;8317;52.186;5.688;2023-01-30T11:06:42;36.85;;;9.82;;
16416;SDS011;8317;52.186;5.688;2023-01-30T11:09:09;47.03;;;14.50;;
16416;SDS011;8317;52.186;5.688;2023-01-30T11:11:41;40.95;;;11.32;;
16416;SDS011;8317;52.186;5.688;2023-01-30T11:14:13;19.08;;;3.90;;
16416;SDS011;8317;52.186;5.688;2023-01-30T11:16:42;18.52;;;4.32;;
16416;SDS011;8317;52.186;5.688;2023-01-30T11:19:10;24.88;;;4.57;;
16416;SDS011;8317;52.186;5.688;2023-01-30T11:21:38;31.15;;;5.80;;
16416;SDS011;8317;52.186;5.688;2023-01-30T11:24:11;19.15;;;4.07;;
16416;SDS011;8317;52.186;5.688;2023-01-30T11:26:43;22.95;;;7.55;;
16416;SDS011;8317;52.186;5.688;2023-01-30T11:29:14;34.67;;;7.80;;
16416;SDS011;8317;52.186;5.688;2023-01-30T11:31:53;26.55;;;4.75;;
16416;SDS011;8317;52.186;5.688;2023-01-30T11:34:20;19.08;;;4.72;;
16416;SDS011;8317;52.186;5.688;2023-01-30T11:36:49;21.73;;;6.28;;
16416;SDS011;8317;52.186;5.688;2023-01-30T11:39:20;20.80;;;5.10;;
16416;SDS011;8317;52.186;5.688;2023-01-30T11:42:00;22.83;;;4.05;;
16416;SDS011;8317;52.186;5.688;2023-01-30T11:44:29;19.42;;;4.60;;
16416;SDS011;8317;52.186;5.688;2023-01-30T11:46:58;26.02;;;6.13;;
16416;SDS011;8317;52.186;5.688;2023-01-30T11:49:28;34.65;;;10.93;;
16416;SDS011;8317;52.186;5.688;2023-01-30T11:51:58;28.60;;;6.53;;
16416;SDS011;8317;52.186;5.688;2023-01-30T11:54:27;20.27;;;4.85;;
16416;SDS011;8317;52.186;5.688;2023-01-30T11:56:57;27.67;;;5.57;;
16416;SDS011;8317;52.186;5.688;2023-01-30T11:59:28;26.38;;;5.22;;
16416;SDS011;8317;52.186;5.688;2023-01-30T12:02:08;26.73;;;5.47;;
16416;SDS011;8317;52.186;5.688;2023-01-30T12:04:41;25.92;;;7.40;;
16416;SDS011;8317;52.186;5.688;2023-01-30T12:07:15;28.23;;;5.70;;
16416;SDS011;8317;52.186;5.688;2023-01-30T12:09:45;19.90;;;5.00;;
16416;SDS011;8317;52.186;5.688;2023-01-30T12:12:32;32.90;;;6.82;;
16416;SDS011;8317;52.186;5.688;2023-01-30T12:15:04;29.35;;;5.32;;
16416;SDS011;8317;52.186;5.688;2023-01-30T12:17:41;36.55;;;6.82;;
16416;SDS011;8317;52.186;5.688;2023-01-30T12:20:13;34.90;;;5.70;;
16416;SDS011;8317;52.186;5.688;2023-01-30T12:22:50;24.80;;;6.03;;
16416;SDS011;8317;52.186;5.688;2023-01-30T12:25:24;26.02;;;5.40;;
16416;SDS011;8317;52.186;5.688;2023-01-30T12:27:57;31.38;;;5.75;;
16416;SDS011;8317;52.186;5.688;2023-01-30T12:30:30;26.70;;;5.30;;
16416;SDS011;8317;52.186;5.688;2023-01-30T12:33:03;27.80;;;6.10;;
16416;SDS011;8317;52.186;5.688;2023-01-30T12:35:38;23.35;;;4.88;;
16416;SDS011;8317;52.186;5.688;2023-01-30T12:38:12;20.58;;;4.03;;
16416;SDS011;8317;52.186;5.688;2023-01-30T12:40:55;25.73;;;4.60;;
16416;SDS011;8317;52.186;5.688;2023-01-30T12:43:42;28.02;;;4.82;;
16416;SDS011;8317;52.186;5.688;2023-01-30T12:46:23;25.52;;;4.18;;
16416;SDS011;8317;52.186;5.688;2023-01-30T12:49:18;25.27;;;4.40;;
16416;SDS011;8317;52.186;5.688;2023-01-30T12:52:03;21.45;;;4.15;;
16416;SDS011;8317;52.186;5.688;2023-01-30T12:54:43;21.38;;;4.68;;
16416;SDS011;8317;52.186;5.688;2023-01-30T12:57:23;25.85;;;4.00;;
16416;SDS011;8317;52.186;5.688;2023-01-30T13:00:05;21.67;;;4.65;;
16416;SDS011;8317;52.186;5.688;2023-01-30T13:02:47;27.77;;;6.90;;
16416;SDS011;8317;52.186;5.688;2023-01-30T13:05:28;17.85;;;4.55;;
16416;SDS011;8317;52.186;5.688;2023-01-30T13:08:05;21.00;;;4.45;;
16416;SDS011;8317;52.186;5.688;2023-01-30T13:10:41;24.27;;;3.83;;
16416;SDS011;8317;52.186;5.688;2023-01-30T13:13:17;23.23;;;4.32;;
16416;SDS011;8317;52.186;5.688;2023-01-30T13:15:51;24.55;;;4.93;;
16416;SDS011;8317;52.186;5.688;2023-01-30T13:18:24;17.80;;;3.95;;
16416;SDS011;8317;52.186;5.688;2023-01-30T13:20:58;19.83;;;4.03;;
16416;SDS011;8317;52.186;5.688;2023-01-30T13:23:34;27.92;;;4.30;;
16416;SDS011;8317;52.186;5.688;2023-01-30T13:26:09;25.25;;;4.43;;
16416;SDS011;8317;52.186;5.688;2023-01-30T13:28:39;26.90;;;4.25;;
16416;SDS011;8317;52.186;5.688;2023-01-30T13:31:13;26.15;;;4.50;;
16416;SDS011;8317;52.186;5.688;2023-01-30T13:33:43;19.65;;;4.25;;
16416;SDS011;8317;52.186;5.688;2023-01-30T13:36:13;19.75;;;3.75;;
16416;SDS011;8317;52.186;5.688;2023-01-30T13:38:44;27.65;;;4.07;;
16416;SDS011;8317;52.186;5.688;2023-01-30T13:41:21;32.95;;;6.40;;
16416;SDS011;8317;52.186;5.688;2023-01-30T13:43:50;68.47;;;17.83;;
16416;SDS011;8317;52.186;5.688;2023-01-30T13:46:23;33.92;;;8.05;;
16416;SDS011;8317;52.186;5.688;2023-01-30T13:49:04;28.88;;;6.90;;
16416;SDS011;8317;52.186;5.688;2023-01-30T13:51:45;22.98;;;4.88;;
16416;SDS011;8317;52.186;5.688;2023-01-30T13:54:19;18.55;;;4.60;;
16416;SDS011;8317;52.186;5.688;2023-01-30T13:56:56;27.25;;;5.68;;
16416;SDS011;8317;52.186;5.688;2023-01-30T13:59:40;24.17;;;4.93;;
16416;SDS011;8317;52.186;5.688;2023-01-30T14:02:23;25.63;;;5.22;;
16416;SDS011;8317;52.186;5.688;2023-01-30T14:04:51;23.20;;;4.18;;
16416;SDS011;8317;52.186;5.688;2023-01-30T14:07:20;30.23;;;4.75;;
16416;SDS011;8317;52.186;5.688;2023-01-30T14:10:00;18.20;;;3.63;;
16416;SDS011;8317;52.186;5.688;2023-01-30T14:12:33;16.17;;;3.38;;
16416;SDS011;8317;52.186;5.688;2023-01-30T14:15:03;23.38;;;4.40;;
16416;SDS011;8317;52.186;5.688;2023-01-30T14:17:33;19.08;;;4.55;;
16416;SDS011;8317;52.186;5.688;2023-01-30T14:20:01;26.42;;;4.00;;
16416;SDS011;8317;52.186;5.688;2023-01-30T14:22:38;21.15;;;3.85;;
16416;SDS011;8317;52.186;5.688;2023-01-30T14:40:27;24.83;;;4.47;;
16416;SDS011;8317;52.186;5.688;2023-01-30T14:49:24;27.30;;;4.72;;
16416;SDS011;8317;52.186;5.688;2023-01-30T14:51:57;25.65;;;4.53;;
16416;SDS011;8317;52.186;5.688;2023-01-30T14:54:27;27.80;;;3.90;;
16416;SDS011;8317;52.186;5.688;2023-01-30T14:57:15;23.75;;;4.22;;
16416;SDS011;8317;52.186;5.688;2023-01-30T14:59:46;20.60;;;4.07;;
16416;SDS011;8317;52.186;5.688;2023-01-30T15:02:18;25.77;;;5.05;;
16416;SDS011;8317;52.186;5.688;2023-01-30T15:04:52;21.90;;;4.00;;
16416;SDS011;8317;52.186;5.688;2023-01-30T15:07:28;21.52;;;4.28;;
16416;SDS011;8317;52.186;5.688;2023-01-30T15:10:02;18.42;;;3.55;;
16416;SDS011;8317;52.186;5.688;2023-01-30T15:12:45;21.95;;;4.25;;
16416;SDS011;8317;52.186;5.688;2023-01-30T15:15:33;23.30;;;3.65;;
16416;SDS011;8317;52.186;5.688;2023-01-30T15:21:13;20.23;;;3.70;;
16416;SDS011;8317;52.186;5.688;2023-01-30T15:24:00;18.70;;;3.95;;
16416;SDS011;8317;52.186;5.688;2023-01-30T15:26:41;24.52;;;4.68;;
16416;SDS011;8317;52.186;5.688;2023-01-30T15:29:21;18.92;;;4.03;;
16416;SDS011;8317;52.186;5.688;2023-01-30T15:31:57;25.35;;;5.70;;